Time;durP1;ratioP1;P1;durP2;ratioP2;P2;SDS_P1;SDS_P2;PMS_P1;PMS_P2;Temp;Humidity;BMP_temperature;BMP_pressure;BME280_temperature;BME280_humidity;BME280_pressure;Samples;Min_cycle;Max_cycle;Signal;HPM_P1;HPM_P2
2023/12/31 00:01:51;;;;;;;4.32;2.70;;;9.10;90.70;;;;;;4892416;29;20115;-80
2023/12/31 00:04:16;;;;;;;4.32;2.40;;;9.10;90.70;;;;;;4881244;29;20504;-79
2023/12/31 00:06:42;;;;;;;4.15;2.75;;;9.10;90.70;;;;;;4882221;29;20087;-79
2023/12/31 00:09:07;;;;;;;5.15;2.90;;;9.10;90.70;;;;;;4897281;29;20124;-79
2023/12/31 00:11:33;;;;;;;6.03;2.85;;;9.20;90.70;;;;;;4884313;29;20047;-80
2023/12/31 00:13:59;;;;;;;5.88;2.55;;;9.20;90.70;;;;;;4882476;29;20043;-78
2023/12/31 00:16:25;;;;;;;5.13;2.50;;;9.20;90.70;;;;;;4882810;29;20048;-78
2023/12/31 00:18:51;;;;;;;5.68;2.65;;;9.20;90.60;;;;;;4899471;29;20508;-79
2023/12/31 00:21:17;;;;;;;4.50;2.47;;;9.40;90.60;;;;;;4899534;29;20047;-78
2023/12/31 00:23:42;;;;;;;5.38;2.17;;;9.20;90.60;;;;;;4882851;29;20045;-78
2023/12/31 00:26:08;;;;;;;4.32;2.40;;;9.20;90.50;;;;;;4900017;29;20119;-78
2023/12/31 00:28:33;;;;;;;3.67;1.98;;;9.20;90.40;;;;;;4884138;29;20056;-78
2023/12/31 00:30:59;;;;;;;3.78;2.13;;;9.20;90.30;;;;;;4898628;29;20041;-77
2023/12/31 00:33:25;;;;;;;4.93;2.05;;;9.20;90.30;;;;;;4900409;29;20043;-78
2023/12/31 00:35:50;;;;;;;4.70;2.30;;;9.20;90.30;;;;;;4882391;29;20408;-78
2023/12/31 00:38:16;;;;;;;4.13;2.25;;;9.20;90.20;;;;;;4899089;29;20068;-78
2023/12/31 00:40:41;;;;;;;4.53;2.10;;;9.20;90.20;;;;;;4896720;29;20123;-78
2023/12/31 00:43:07;;;;;;;5.70;2.10;;;9.20;90.10;;;;;;4882728;29;20041;-78
2023/12/31 00:45:32;;;;;;;4.40;2.40;;;9.10;90.10;;;;;;4882058;29;20493;-78
2023/12/31 00:47:58;;;;;;;3.35;1.98;;;9.20;90.10;;;;;;4899591;29;20033;-78
2023/12/31 00:50:24;;;;;;;5.93;2.50;;;9.10;90.10;;;;;;4882062;29;20040;-78
2023/12/31 00:52:49;;;;;;;4.43;1.77;;;9.10;90.10;;;;;;4881933;29;20127;-78
2023/12/31 00:55:15;;;;;;;6.78;2.15;;;9.10;90.10;;;;;;4899404;29;20104;-78
2023/12/31 00:57:40;;;;;;;4.07;2.13;;;9.10;90.10;;;;;;4899880;29;20065;-78
2023/12/31 01:00:07;;;;;;;3.60;1.85;;;9.10;90.10;;;;;;4882909;29;20404;-78
2023/12/31 01:02:32;;;;;;;5.68;2.35;;;9.10;90.10;;;;;;4883850;29;20044;-78
2023/12/31 01:04:58;;;;;;;3.65;1.85;;;9.20;90.10;;;;;;4883796;29;20036;-78
2023/12/31 01:07:23;;;;;;;4.00;2.15;;;9.10;90.00;;;;;;4880454;29;20044;-78
2023/12/31 01:09:49;;;;;;;3.22;1.80;;;9.10;90.00;;;;;;4883101;29;20096;-78
2023/12/31 01:12:15;;;;;;;4.47;1.83;;;9.00;90.00;;;;;;4899028;29;20373;-78
2023/12/31 01:14:41;;;;;;;4.57;1.67;;;9.00;90.00;;;;;;4882506;29;20052;-78
2023/12/31 01:17:08;;;;;;;3.22;1.60;;;9.00;90.00;;;;;;4882150;29;20041;-78
2023/12/31 01:19:34;;;;;;;4.03;1.80;;;9.00;89.90;;;;;;4896795;29;20055;-78
2023/12/31 01:22:00;;;;;;;3.17;1.70;;;9.00;89.90;;;;;;4898721;29;20036;-78
2023/12/31 01:24:26;;;;;;;3.20;1.80;;;9.00;89.90;;;;;;4898862;29;20040;-78
2023/12/31 01:26:51;;;;;;;4.70;1.50;;;9.00;89.80;;;;;;4898232;29;20044;-78
2023/12/31 01:29:17;;;;;;;3.58;1.52;;;9.00;89.80;;;;;;4898838;29;20060;-78
2023/12/31 01:31:42;;;;;;;3.92;1.75;;;8.90;89.70;;;;;;4881992;29;20092;-78
2023/12/31 01:34:08;;;;;;;3.20;1.60;;;8.90;89.70;;;;;;4881982;29;20093;-78
2023/12/31 01:36:34;;;;;;;3.10;1.67;;;8.90;89.70;;;;;;4898058;29;20049;-77
2023/12/31 01:38:59;;;;;;;3.47;1.50;;;8.90;89.70;;;;;;4899168;29;21357;-78
2023/12/31 01:41:25;;;;;;;4.18;1.48;;;8.90;89.70;;;;;;4898984;29;20052;-78
2023/12/31 01:44:03;;;;;;;3.10;1.92;;;8.90;89.70;;;;;;4898861;29;20124;-79
2023/12/31 01:46:31;;;;;;;4.07;2.03;;;8.90;89.60;;;;;;4897999;29;20385;-78
2023/12/31 01:48:57;;;;;;;4.35;1.60;;;8.90;89.60;;;;;;4898350;29;20443;-78
2023/12/31 01:51:24;;;;;;;2.05;1.40;;;8.80;89.60;;;;;;4898482;29;20722;-78
2023/12/31 01:53:50;;;;;;;2.78;1.52;;;8.90;89.60;;;;;;4881621;29;20096;-78
2023/12/31 01:56:17;;;;;;;2.33;1.55;;;8.80;89.50;;;;;;4881229;29;20041;-78
2023/12/31 01:58:43;;;;;;;6.25;1.75;;;8.80;89.50;;;;;;4878760;29;20124;-78
2023/12/31 02:01:10;;;;;;;2.67;1.33;;;8.80;89.50;;;;;;4898587;29;20098;-78
2023/12/31 02:03:35;;;;;;;3.20;1.55;;;8.80;89.50;;;;;;4881858;29;20049;-78
2023/12/31 02:06:02;;;;;;;2.25;1.33;;;8.80;89.40;;;;;;4898101;29;20041;-78
2023/12/31 02:08:28;;;;;;;3.75;1.45;;;8.80;89.40;;;;;;4880687;29;20044;-78
2023/12/31 02:10:53;;;;;;;2.30;1.30;;;8.80;89.50;;;;;;4880648;29;20044;-78
2023/12/31 02:13:20;;;;;;;3.25;1.20;;;8.80;89.40;;;;;;4866570;29;20045;-78
2023/12/31 02:15:45;;;;;;;3.13;1.30;;;8.80;89.50;;;;;;4868096;29;20033;-78
2023/12/31 02:18:11;;;;;;;1.83;1.23;;;8.80;89.50;;;;;;4880661;29;20057;-78
2023/12/31 02:20:37;;;;;;;3.25;1.27;;;8.80;89.40;;;;;;4896856;29;20040;-78
2023/12/31 02:23:03;;;;;;;2.70;1.80;;;8.80;89.40;;;;;;4880854;29;20749;-78
2023/12/31 02:25:29;;;;;;;3.70;1.30;;;8.70;89.40;;;;;;4898238;29;20096;-78
2023/12/31 02:27:55;;;;;;;2.47;1.10;;;8.80;89.40;;;;;;4899013;29;20052;-78
2023/12/31 02:30:23;;;;;;;2.22;1.17;;;8.80;89.40;;;;;;4898252;29;20032;-78
2023/12/31 02:32:48;;;;;;;2.85;1.25;;;8.70;89.80;;;;;;4897110;29;20131;-78
2023/12/31 02:35:14;;;;;;;2.72;1.27;;;8.70;89.40;;;;;;4879907;29;20045;-78
2023/12/31 02:37:40;;;;;;;1.83;0.80;;;8.70;89.30;;;;;;4898536;29;20047;-78
2023/12/31 02:40:06;;;;;;;2.90;1.20;;;8.70;89.30;;;;;;4880776;29;20119;-78
2023/12/31 02:42:31;;;;;;;2.28;1.02;;;8.70;89.30;;;;;;4865078;29;20105;-78
2023/12/31 02:44:57;;;;;;;3.70;1.33;;;8.70;89.60;;;;;;4880607;29;20048;-78
2023/12/31 02:47:23;;;;;;;2.13;1.13;;;8.70;89.20;;;;;;4881251;29;20063;-78
2023/12/31 02:49:48;;;;;;;1.92;1.15;;;8.70;89.10;;;;;;4897419;29;22340;-78
2023/12/31 02:52:15;;;;;;;3.90;1.30;;;8.70;89.00;;;;;;4880559;29;20692;-78
2023/12/31 02:54:41;;;;;;;2.55;1.10;;;8.70;88.90;;;;;;4880691;29;20468;-78
2023/12/31 02:57:07;;;;;;;2.67;1.05;;;8.70;88.80;;;;;;4864804;29;20036;-78
2023/12/31 02:59:35;;;;;;;1.38;0.70;;;8.70;88.70;;;;;;4880432;29;20043;-78
2023/12/31 03:02:02;;;;;;;3.55;1.00;;;8.60;88.60;;;;;;4896697;29;20409;-78
2023/12/31 03:04:27;;;;;;;2.53;1.02;;;8.70;88.60;;;;;;4880500;29;20069;-78
2023/12/31 03:06:53;;;;;;;2.03;1.13;;;8.60;88.40;;;;;;4880840;29;20076;-78
2023/12/31 03:09:21;;;;;;;3.00;1.10;;;8.70;88.50;;;;;;4880676;29;20048;-78
2023/12/31 03:11:51;;;;;;;3.25;1.25;;;8.70;88.50;;;;;;4880510;29;20108;-78
2023/12/31 03:14:17;;;;;;;3.65;1.95;;;8.60;88.50;;;;;;4879769;29;20053;-78
2023/12/31 03:16:46;;;;;;;4.70;1.10;;;8.60;88.50;;;;;;4880747;29;20576;-78
2023/12/31 03:19:13;;;;;;;2.65;1.15;;;8.60;88.50;;;;;;4879380;29;20092;-78
2023/12/31 03:21:39;;;;;;;3.85;1.67;;;8.70;88.50;;;;;;4895264;29;20068;-78
2023/12/31 03:24:05;;;;;;;5.97;1.38;;;8.70;88.60;;;;;;4897893;29;20037;-78
2023/12/31 03:26:30;;;;;;;2.80;1.55;;;8.70;88.60;;;;;;4898086;29;20408;-78
2023/12/31 03:28:56;;;;;;;3.95;1.60;;;8.70;88.60;;;;;;4880814;29;20048;-78
2023/12/31 03:31:21;;;;;;;4.25;1.73;;;8.70;88.60;;;;;;4880899;29;20049;-78
2023/12/31 03:33:47;;;;;;;3.30;1.75;;;8.70;88.60;;;;;;4880695;29;20040;-78
2023/12/31 03:36:12;;;;;;;4.50;1.85;;;8.70;88.60;;;;;;4880716;29;20104;-78
2023/12/31 03:38:38;;;;;;;4.13;1.98;;;8.70;88.60;;;;;;4881325;29;20168;-79
2023/12/31 03:41:04;;;;;;;3.95;1.90;;;8.70;88.60;;;;;;4880624;29;20045;-78
2023/12/31 03:43:30;;;;;;;5.60;2.20;;;8.80;88.50;;;;;;4879649;29;20048;-78
2023/12/31 03:45:57;;;;;;;4.22;1.95;;;8.80;88.40;;;;;;4881640;29;20044;-78
2023/12/31 03:48:23;;;;;;;3.75;2.20;;;8.80;88.30;;;;;;4883848;29;20049;-78
2023/12/31 03:50:48;;;;;;;4.35;2.20;;;8.80;88.30;;;;;;4901848;29;20097;-78
2023/12/31 03:53:14;;;;;;;4.13;2.35;;;8.80;88.20;;;;;;4885297;29;20377;-78
2023/12/31 03:55:40;;;;;;;3.85;1.83;;;8.80;88.10;;;;;;4884716;29;20047;-78
2023/12/31 03:58:06;;;;;;;4.78;2.08;;;8.80;88.00;;;;;;4901313;29;20033;-78
2023/12/31 04:00:32;;;;;;;3.58;2.15;;;8.80;88.00;;;;;;4902212;29;20052;-78
2023/12/31 04:02:58;;;;;;;2.80;1.70;;;8.80;87.80;;;;;;4901267;29;20040;-78
2023/12/31 04:05:24;;;;;;;5.32;1.70;;;8.80;87.70;;;;;;4885216;29;20041;-78
2023/12/31 04:07:50;;;;;;;4.25;1.85;;;8.90;87.70;;;;;;4886162;29;20064;-78
2023/12/31 04:10:15;;;;;;;3.88;1.92;;;8.90;87.60;;;;;;4886342;29;20047;-78
2023/12/31 04:12:41;;;;;;;4.00;2.25;;;8.90;87.50;;;;;;4886510;29;20044;-79
2023/12/31 04:15:08;;;;;;;5.38;2.53;;;8.90;87.40;;;;;;4885314;29;20040;-78
2023/12/31 04:17:34;;;;;;;4.18;1.90;;;8.90;87.30;;;;;;4884902;29;20693;-78
2023/12/31 04:20:00;;;;;;;4.57;2.10;;;8.90;87.20;;;;;;4886186;29;20051;-79
2023/12/31 04:22:26;;;;;;;4.95;2.13;;;8.90;87.10;;;;;;4885441;29;20041;-78
2023/12/31 04:24:51;;;;;;;4.95;2.20;;;8.90;86.90;;;;;;4884759;29;20047;-78
2023/12/31 04:27:18;;;;;;;4.57;1.90;;;8.90;86.90;;;;;;4868236;29;20408;-78
2023/12/31 04:29:43;;;;;;;4.35;2.13;;;8.90;86.80;;;;;;4883421;29;20055;-78
2023/12/31 04:32:09;;;;;;;3.05;1.70;;;9.00;86.60;;;;;;4883744;29;20052;-78
2023/12/31 04:34:35;;;;;;;4.53;2.20;;;8.90;86.40;;;;;;4883906;29;20052;-78
2023/12/31 04:37:00;;;;;;;3.50;1.85;;;8.90;86.40;;;;;;4884156;29;20040;-78
2023/12/31 04:39:26;;;;;;;2.72;1.85;;;8.90;86.40;;;;;;4883631;29;20040;-78
2023/12/31 04:41:52;;;;;;;3.22;1.88;;;8.90;86.40;;;;;;4869099;29;20041;-78
2023/12/31 04:44:18;;;;;;;3.85;1.80;;;8.90;86.30;;;;;;4884347;29;20048;-78
2023/12/31 04:46:44;;;;;;;4.28;1.55;;;8.90;86.10;;;;;;4883861;29;20041;-78
2023/12/31 04:49:13;;;;;;;3.90;1.98;;;8.90;86.00;;;;;;4884074;29;20040;-78
2023/12/31 04:51:38;;;;;;;3.63;1.70;;;8.90;85.90;;;;;;4884083;29;20086;-78
2023/12/31 04:54:04;;;;;;;2.75;1.60;;;9.00;85.80;;;;;;4883751;29;20087;-78
2023/12/31 04:56:30;;;;;;;4.53;1.70;;;8.90;85.60;;;;;;4883587;29;20045;-78
2023/12/31 04:58:56;;;;;;;2.58;1.50;;;8.90;85.50;;;;;;4883960;29;20044;-78
2023/12/31 05:01:22;;;;;;;2.70;1.58;;;9.00;85.60;;;;;;4883788;29;20452;-78
2023/12/31 05:03:49;;;;;;;3.80;2.20;;;8.90;85.40;;;;;;4883403;29;20064;-78
2023/12/31 05:06:15;;;;;;;3.63;1.50;;;8.90;85.40;;;;;;4901165;29;20041;-78
2023/12/31 05:08:45;;;;;;;4.05;1.63;;;8.90;85.10;;;;;;4900712;29;20135;-78
2023/12/31 05:11:14;;;;;;;2.92;1.45;;;9.00;85.30;;;;;;4884028;29;20047;-79
2023/12/31 05:13:40;;;;;;;4.05;1.80;;;8.90;85.10;;;;;;4900047;29;20041;-78
2023/12/31 05:16:07;;;;;;;2.97;1.92;;;8.90;85.10;;;;;;4899889;29;20040;-79
2023/12/31 05:18:33;;;;;;;2.95;1.55;;;9.00;85.10;;;;;;4899673;29;20068;-78
2023/12/31 05:21:02;;;;;;;5.53;1.85;;;9.00;85.10;;;;;;4883561;29;20037;-78
2023/12/31 05:23:30;;;;;;;3.85;1.73;;;8.90;85.00;;;;;;4899815;29;20044;-78
2023/12/31 05:25:56;;;;;;;3.90;2.05;;;8.90;85.40;;;;;;4883313;29;20104;-78
2023/12/31 05:28:21;;;;;;;4.60;1.88;;;8.90;84.90;;;;;;4883235;29;20033;-78
2023/12/31 05:30:47;;;;;;;4.47;2.30;;;8.90;84.80;;;;;;4883973;29;20040;-78
2023/12/31 05:33:12;;;;;;;3.65;1.90;;;8.90;84.70;;;;;;4883772;29;20051;-78
2023/12/31 05:35:38;;;;;;;5.72;2.10;;;8.90;84.70;;;;;;4884352;29;20091;-78
2023/12/31 05:38:04;;;;;;;3.58;2.08;;;8.90;84.70;;;;;;4884215;29;20032;-78
2023/12/31 05:40:29;;;;;;;4.47;2.33;;;8.90;84.50;;;;;;4880816;29;20041;-78
2023/12/31 05:42:55;;;;;;;3.80;2.33;;;9.00;84.60;;;;;;4883671;29;20855;-78
2023/12/31 05:45:21;;;;;;;5.22;2.72;;;8.90;84.40;;;;;;4884668;29;20096;-78
2023/12/31 05:47:47;;;;;;;6.80;2.80;;;8.90;84.40;;;;;;4900202;29;20040;-79
2023/12/31 05:50:13;;;;;;;4.10;2.25;;;8.90;84.50;;;;;;4882974;29;20040;-78
2023/12/31 05:52:39;;;;;;;4.32;2.85;;;8.90;84.40;;;;;;4899312;29;20614;-78
2023/12/31 05:55:05;;;;;;;4.97;2.90;;;8.90;84.40;;;;;;4882982;29;20072;-78
2023/12/31 05:57:30;;;;;;;6.72;3.05;;;8.90;84.40;;;;;;4882999;29;20052;-78
2023/12/31 05:59:56;;;;;;;3.88;2.80;;;8.90;84.40;;;;;;4881524;29;20381;-78
2023/12/31 06:02:22;;;;;;;5.35;2.92;;;8.90;84.50;;;;;;4899013;29;20084;-79
2023/12/31 06:04:47;;;;;;;4.72;3.13;;;8.90;84.40;;;;;;4882909;29;20045;-78
2023/12/31 06:07:13;;;;;;;4.45;2.97;;;8.90;84.30;;;;;;4882965;29;20055;-78
2023/12/31 06:09:39;;;;;;;5.95;2.75;;;8.90;84.40;;;;;;4882090;29;20063;-78
2023/12/31 06:12:04;;;;;;;3.78;2.10;;;8.90;84.30;;;;;;4883102;29;20079;-78
2023/12/31 06:14:30;;;;;;;5.90;2.80;;;8.90;84.30;;;;;;4899583;29;20040;-78
2023/12/31 06:16:55;;;;;;;4.57;2.15;;;9.00;84.30;;;;;;4899593;29;20040;-78
2023/12/31 06:19:21;;;;;;;5.80;2.70;;;9.10;84.40;;;;;;4898424;29;20052;-78
2023/12/31 06:21:47;;;;;;;3.63;2.13;;;8.90;84.30;;;;;;4899465;29;20052;-78
2023/12/31 06:24:12;;;;;;;4.15;1.95;;;8.90;84.20;;;;;;4899773;29;20124;-78
2023/12/31 06:26:38;;;;;;;6.03;2.08;;;9.00;84.20;;;;;;4898192;29;20069;-78
2023/12/31 06:29:03;;;;;;;3.75;2.00;;;9.00;84.00;;;;;;4881959;29;20040;-78
2023/12/31 06:31:29;;;;;;;3.80;1.85;;;9.00;84.10;;;;;;4899842;29;20071;-79
2023/12/31 06:33:55;;;;;;;4.25;2.00;;;9.00;83.90;;;;;;4883007;29;20040;-79
2023/12/31 06:36:20;;;;;;;4.63;2.17;;;9.00;83.80;;;;;;4898290;29;20126;-78
2023/12/31 06:38:46;;;;;;;3.42;1.90;;;9.00;83.80;;;;;;4866195;29;20053;-79
2023/12/31 06:41:11;;;;;;;3.38;1.92;;;9.10;83.70;;;;;;4898512;29;20045;-78
2023/12/31 06:43:38;;;;;;;4.68;2.40;;;9.10;83.70;;;;;;4882620;29;20051;-78
2023/12/31 06:46:04;;;;;;;4.25;2.15;;;9.10;83.60;;;;;;4899032;29;20051;-78
2023/12/31 06:48:30;;;;;;;3.75;2.00;;;9.10;83.60;;;;;;4899501;29;20040;-78
2023/12/31 06:50:56;;;;;;;3.00;2.03;;;9.10;83.50;;;;;;4881958;29;20115;-78
2023/12/31 06:53:22;;;;;;;2.38;1.80;;;9.20;83.50;;;;;;4882346;29;20052;-78
2023/12/31 06:55:47;;;;;;;3.75;1.70;;;9.20;83.50;;;;;;4882210;29;20044;-79
2023/12/31 06:58:14;;;;;;;2.83;1.58;;;9.20;83.30;;;;;;4881753;29;20048;-78
2023/12/31 07:00:40;;;;;;;3.33;1.80;;;9.20;83.30;;;;;;4898498;29;20408;-79
2023/12/31 07:03:05;;;;;;;3.53;1.73;;;9.20;83.20;;;;;;4882523;29;20044;-78
2023/12/31 07:05:31;;;;;;;2.67;1.75;;;9.30;83.30;;;;;;4882924;29;20563;-78
2023/12/31 07:07:57;;;;;;;4.72;2.40;;;9.30;83.10;;;;;;4899220;29;20036;-78
2023/12/31 07:10:23;;;;;;;3.80;2.22;;;9.30;83.20;;;;;;4899265;29;20499;-78
2023/12/31 07:12:49;;;;;;;3.60;1.85;;;9.30;83.10;;;;;;4882501;29;20386;-78
2023/12/31 07:15:15;;;;;;;3.85;2.10;;;9.30;82.90;;;;;;4898553;29;20047;-78
2023/12/31 07:17:41;;;;;;;3.38;2.30;;;9.40;83.00;;;;;;4897797;29;20048;-78
2023/12/31 07:20:07;;;;;;;3.47;2.30;;;9.40;82.90;;;;;;4897549;29;20064;-79
2023/12/31 07:22:33;;;;;;;3.83;2.03;;;9.40;82.80;;;;;;4883236;29;20047;-79
2023/12/31 07:25:00;;;;;;;3.67;2.00;;;9.40;82.80;;;;;;4898771;29;20044;-78
2023/12/31 07:27:26;;;;;;;4.53;2.95;;;9.40;82.70;;;;;;4898642;29;20045;-79
2023/12/31 07:29:51;;;;;;;3.60;2.13;;;9.40;82.80;;;;;;4899371;29;20510;-79
2023/12/31 07:32:18;;;;;;;3.72;2.17;;;9.40;82.90;;;;;;4897664;29;20119;-78
2023/12/31 07:34:44;;;;;;;3.03;1.98;;;9.40;83.00;;;;;;4898444;29;20049;-78
2023/12/31 07:37:09;;;;;;;3.95;2.50;;;9.40;83.00;;;;;;4898813;29;20039;-79
2023/12/31 07:39:35;;;;;;;4.10;2.10;;;9.40;82.80;;;;;;4899903;29;20063;-78
2023/12/31 07:42:04;;;;;;;3.50;2.08;;;9.40;82.80;;;;;;4899062;29;20503;-78
2023/12/31 07:44:29;;;;;;;3.08;1.98;;;9.50;82.80;;;;;;4883534;29;20127;-78
2023/12/31 07:46:56;;;;;;;4.25;2.20;;;9.50;82.70;;;;;;4884994;29;20076;-78
2023/12/31 07:49:22;;;;;;;4.80;2.15;;;9.50;82.80;;;;;;4887836;29;20522;-79
2023/12/31 07:51:48;;;;;;;4.15;2.63;;;9.50;82.60;;;;;;4901463;29;20045;-78
2023/12/31 07:54:13;;;;;;;3.75;2.17;;;9.50;82.70;;;;;;4905102;29;20045;-78
2023/12/31 07:56:41;;;;;;;3.08;2.03;;;9.50;82.60;;;;;;4905677;29;20040;-78
2023/12/31 07:59:06;;;;;;;3.22;2.28;;;9.50;82.50;;;;;;4891066;29;20047;-78
2023/12/31 08:01:32;;;;;;;3.40;2.20;;;9.50;82.90;;;;;;4884089;29;20488;-78
2023/12/31 08:03:58;;;;;;;3.90;2.25;;;9.50;82.50;;;;;;4900248;29;20056;-78
2023/12/31 08:06:23;;;;;;;4.85;2.53;;;9.50;82.50;;;;;;4897401;29;20123;-79
2023/12/31 08:08:49;;;;;;;5.80;2.55;;;9.70;82.50;;;;;;4867193;29;20520;-79
2023/12/31 08:11:15;;;;;;;3.03;2.00;;;9.60;82.30;;;;;;4898563;29;20043;-78
2023/12/31 08:13:41;;;;;;;3.97;2.33;;;9.50;82.20;;;;;;4883027;29;20115;-78
2023/12/31 08:16:07;;;;;;;4.88;2.47;;;9.50;82.00;;;;;;4899765;29;20055;-78
2023/12/31 08:18:34;;;;;;;3.78;2.30;;;9.50;82.10;;;;;;4898657;29;20527;-78
2023/12/31 08:20:59;;;;;;;4.30;2.80;;;9.60;82.00;;;;;;4882368;29;20056;-79
2023/12/31 08:23:25;;;;;;;5.20;2.70;;;9.60;81.90;;;;;;4883227;29;20404;-78
2023/12/31 08:25:51;;;;;;;5.90;2.20;;;9.60;81.90;;;;;;4899856;29;20416;-78
2023/12/31 08:28:17;;;;;;;3.85;2.67;;;9.60;81.90;;;;;;4883497;29;20044;-78
2023/12/31 08:30:42;;;;;;;4.63;2.13;;;9.60;81.90;;;;;;4883298;29;20045;-78
2023/12/31 08:33:08;;;;;;;3.15;2.08;;;9.60;81.90;;;;;;4886471;29;20048;-78
2023/12/31 08:35:34;;;;;;;3.42;2.38;;;9.60;81.90;;;;;;4887510;29;20059;-80
2023/12/31 08:37:59;;;;;;;4.55;2.33;;;9.60;81.90;;;;;;4904211;29;20040;-80
2023/12/31 08:40:25;;;;;;;3.72;2.03;;;9.60;81.80;;;;;;4887265;29;20041;-78
2023/12/31 08:42:50;;;;;;;4.60;2.35;;;9.80;82.00;;;;;;4902708;29;20074;-79
2023/12/31 08:45:16;;;;;;;3.65;2.35;;;9.80;81.90;;;;;;4902283;29;20045;-79
2023/12/31 08:47:42;;;;;;;4.90;2.65;;;9.70;82.00;;;;;;4886043;29;20564;-79
2023/12/31 08:50:09;;;;;;;4.28;2.53;;;9.60;81.90;;;;;;4901951;29;20040;-78
2023/12/31 08:52:38;;;;;;;4.40;2.33;;;9.70;82.00;;;;;;4869635;29;20044;-79
2023/12/31 08:55:06;;;;;;;4.63;2.47;;;9.70;82.00;;;;;;4885313;29;20412;-79
2023/12/31 08:57:32;;;;;;;4.63;2.63;;;9.70;81.80;;;;;;4901765;29;20040;-79
2023/12/31 08:59:57;;;;;;;4.63;2.78;;;9.70;81.80;;;;;;4900377;29;20404;-79
2023/12/31 09:02:23;;;;;;;4.38;2.58;;;9.70;81.80;;;;;;4901919;29;20036;-79
2023/12/31 09:04:49;;;;;;;6.72;2.50;;;9.70;81.90;;;;;;4901966;29;20126;-79
2023/12/31 09:07:14;;;;;;;3.63;2.47;;;9.70;82.00;;;;;;4884955;29;20508;-79
2023/12/31 09:09:40;;;;;;;4.43;2.45;;;9.70;82.00;;;;;;4884802;29;20486;-79
2023/12/31 09:12:06;;;;;;;4.68;3.00;;;9.80;82.20;;;;;;4869528;29;20040;-79
2023/12/31 09:14:32;;;;;;;5.32;2.40;;;9.80;82.20;;;;;;4901131;29;20100;-79
2023/12/31 09:16:57;;;;;;;4.80;3.22;;;9.80;82.20;;;;;;4902138;29;20096;-79
2023/12/31 09:19:23;;;;;;;3.85;2.85;;;9.80;82.30;;;;;;4884721;29;20540;-79
2023/12/31 09:21:48;;;;;;;4.32;2.50;;;9.80;82.30;;;;;;4884201;29;20041;-79
2023/12/31 09:24:14;;;;;;;6.85;3.00;;;9.80;82.40;;;;;;4884812;29;20055;-79
2023/12/31 09:26:39;;;;;;;3.70;2.90;;;9.80;82.60;;;;;;4885111;29;20060;-79
2023/12/31 09:29:05;;;;;;;3.85;2.55;;;9.80;82.80;;;;;;4901494;29;20048;-79
2023/12/31 09:31:31;;;;;;;3.58;2.35;;;9.80;82.90;;;;;;4901165;29;20036;-81
2023/12/31 09:33:56;;;;;;;4.55;2.97;;;9.90;83.10;;;;;;4900365;29;20036;-79
2023/12/31 09:36:22;;;;;;;5.75;3.05;;;9.80;83.00;;;;;;4900377;29;20044;-80
2023/12/31 09:38:48;;;;;;;5.72;3.08;;;9.90;83.10;;;;;;4884204;29;20037;-79
2023/12/31 09:41:21;;;;;;;6.10;3.42;;;9.90;83.20;;;;;;4884999;29;20048;-79
2023/12/31 09:43:50;;;;;;;4.88;3.25;;;9.90;83.20;;;;;;4882143;29;20049;-79
2023/12/31 09:46:17;;;;;;;4.82;2.60;;;9.90;83.40;;;;;;4885659;29;20045;-79
2023/12/31 09:48:43;;;;;;;4.40;2.90;;;9.90;83.50;;;;;;4883356;29;20682;-79
2023/12/31 09:51:09;;;;;;;4.28;2.90;;;9.90;83.60;;;;;;4881648;29;20052;-79
2023/12/31 09:53:42;;;;;;;4.35;2.88;;;9.90;83.70;;;;;;4898376;29;20063;-79
2023/12/31 09:56:08;;;;;;;5.03;3.13;;;9.80;83.60;;;;;;4899513;29;20471;-78
2023/12/31 09:58:36;;;;;;;5.30;3.10;;;9.90;83.70;;;;;;4898086;29;20101;-79
2023/12/31 10:01:02;;;;;;;4.30;2.88;;;9.90;83.80;;;;;;4882581;29;20037;-79
2023/12/31 10:03:27;;;;;;;4.18;2.60;;;9.90;83.70;;;;;;4883781;29;20100;-79
2023/12/31 10:05:55;;;;;;;5.65;3.08;;;9.90;83.70;;;;;;4896166;29;20428;-79
2023/12/31 10:08:21;;;;;;;5.20;3.15;;;9.90;83.70;;;;;;4880500;29;20049;-79
2023/12/31 10:10:48;;;;;;;5.03;2.80;;;9.90;83.60;;;;;;4882721;29;20066;-79
2023/12/31 10:13:17;;;;;;;5.13;3.30;;;9.90;83.50;;;;;;4878957;29;20053;-79
2023/12/31 10:15:43;;;;;;;4.72;2.88;;;9.90;83.30;;;;;;4867645;29;20052;-79
2023/12/31 10:18:09;;;;;;;6.07;2.80;;;9.90;83.20;;;;;;4899497;29;20052;-79
2023/12/31 10:20:38;;;;;;;4.78;3.17;;;10.00;83.00;;;;;;4879396;29;20100;-79
2023/12/31 10:23:04;;;;;;;4.10;3.00;;;10.00;83.10;;;;;;4899316;29;20044;-79
2023/12/31 10:25:30;;;;;;;4.43;3.05;;;10.00;83.10;;;;;;4893723;29;20572;-80
2023/12/31 10:27:56;;;;;;;6.88;3.30;;;10.00;83.20;;;;;;4879211;29;20123;-79
2023/12/31 10:30:22;;;;;;;7.47;5.00;;;10.00;83.10;;;;;;4879198;29;20497;-79
2023/12/31 10:32:51;;;;;;;4.22;2.88;;;10.00;83.00;;;;;;4895305;29;20040;-79
2023/12/31 10:35:20;;;;;;;5.25;3.20;;;10.10;83.00;;;;;;4897243;29;20158;-80
2023/12/31 10:37:46;;;;;;;5.68;2.70;;;10.10;82.60;;;;;;4882683;29;20068;-80
2023/12/31 10:40:20;;;;;;;5.90;3.22;;;10.00;82.70;;;;;;4876200;29;20087;-80
2023/12/31 10:42:48;;;;;;;5.25;3.45;;;10.10;82.80;;;;;;4878803;29;20123;-79
2023/12/31 10:45:17;;;;;;;4.72;3.20;;;10.00;83.00;;;;;;4880024;29;20052;-80
2023/12/31 10:47:45;;;;;;;4.35;3.05;;;10.10;83.10;;;;;;4879940;29;20413;-80
2023/12/31 10:50:16;;;;;;;4.35;2.70;;;10.10;83.30;;;;;;4892778;29;20056;-80
2023/12/31 10:52:43;;;;;;;5.75;3.22;;;10.10;83.60;;;;;;4897656;29;20060;-81
2023/12/31 10:55:13;;;;;;;4.07;2.80;;;10.00;83.80;;;;;;4898604;29;20408;-80
2023/12/31 10:57:42;;;;;;;4.05;2.50;;;10.00;84.10;;;;;;4881631;29;20036;-80
2023/12/31 11:00:11;;;;;;;4.97;3.17;;;10.30;84.60;;;;;;4881334;29;20036;-80
2023/12/31 11:02:37;;;;;;;3.72;2.10;;;10.00;84.80;;;;;;4876009;29;20053;-80
2023/12/31 11:05:05;;;;;;;5.22;2.70;;;9.90;85.00;;;;;;4883290;29;20051;-80
2023/12/31 11:07:31;;;;;;;6.03;2.35;;;9.90;85.40;;;;;;4877332;29;20489;-80
2023/12/31 11:10:00;;;;;;;2.45;1.50;;;9.90;85.20;;;;;;4898436;29;20063;-79
2023/12/31 11:12:26;;;;;;;2.38;1.10;;;9.70;85.20;;;;;;4881025;29;20622;-80
2023/12/31 11:15:13;;;;;;;1.85;0.88;;;9.70;85.20;;;;;;4880440;29;20044;-79
2023/12/31 11:18:08;;;;;;;2.65;0.50;;;9.60;85.00;;;;;;4882356;29;20072;-80
2023/12/31 11:20:58;;;;;;;0.98;0.50;;;9.50;85.10;;;;;;4879745;29;20064;-79
2023/12/31 11:23:32;;;;;;;2.13;0.77;;;9.40;85.20;;;;;;4894564;29;20056;-79
2023/12/31 11:25:59;;;;;;;1.35;0.63;;;9.30;85.40;;;;;;4896446;29;20059;-79
2023/12/31 11:28:28;;;;;;;2.05;0.82;;;9.30;85.60;;;;;;4879258;29;20493;-79
2023/12/31 11:30:58;;;;;;;1.23;0.80;;;9.20;85.90;;;;;;4877581;29;20055;-79
2023/12/31 11:33:44;;;;;;;2.40;1.05;;;9.20;86.20;;;;;;4878983;29;20037;-79
2023/12/31 11:36:17;;;;;;;1.83;0.80;;;9.20;86.40;;;;;;4878455;29;20481;-79
2023/12/31 11:39:16;;;;;;;1.35;0.63;;;9.10;86.70;;;;;;4898661;29;20040;-78
2023/12/31 11:41:49;;;;;;;2.95;0.90;;;9.10;86.80;;;;;;4881365;29;20053;-80
2023/12/31 11:44:50;;;;;;;1.77;0.95;;;9.10;87.00;;;;;;4881276;29;20049;-79
2023/12/31 11:47:21;;;;;;;1.10;0.65;;;9.00;87.40;;;;;;4820443;29;20167;-79
2023/12/31 11:49:52;;;;;;;1.10;0.60;;;9.00;87.30;;;;;;4883484;29;20135;-79
2023/12/31 11:52:32;;;;;;;4.82;1.60;;;9.00;87.60;;;;;;4898679;29;20036;-80
2023/12/31 11:55:01;;;;;;;1.85;0.80;;;8.90;87.70;;;;;;4880452;29;20060;-80
2023/12/31 11:57:27;;;;;;;2.08;0.80;;;8.90;87.80;;;;;;4878935;29;20068;-79
2023/12/31 11:59:53;;;;;;;1.98;0.90;;;8.90;88.10;;;;;;4877786;29;20488;-80
2023/12/31 12:02:20;;;;;;;1.67;1.00;;;8.90;88.40;;;;;;4880442;29;20037;-80
2023/12/31 12:04:46;;;;;;;1.98;0.90;;;8.90;88.90;;;;;;4879810;29;20044;-79
2023/12/31 12:07:13;;;;;;;2.25;0.82;;;8.90;89.10;;;;;;4880971;29;20500;-79
2023/12/31 12:09:39;;;;;;;2.15;0.95;;;9.00;89.40;;;;;;4900409;29;20055;-79
2023/12/31 12:12:06;;;;;;;3.45;1.25;;;8.90;89.50;;;;;;4884773;29;20143;-79
2023/12/31 12:14:33;;;;;;;2.63;1.35;;;8.90;89.60;;;;;;4900781;29;20508;-79
2023/12/31 12:17:00;;;;;;;2.13;1.30;;;8.90;89.80;;;;;;4896761;29;20165;-79
2023/12/31 12:19:26;;;;;;;2.83;1.08;;;8.90;90.00;;;;;;4898745;29;20514;-80
2023/12/31 12:21:53;;;;;;;3.45;1.15;;;8.90;90.10;;;;;;4898913;29;20041;-79
2023/12/31 12:24:19;;;;;;;3.33;1.50;;;8.90;90.10;;;;;;4901250;29;20068;-80
2023/12/31 12:26:48;;;;;;;3.17;1.20;;;9.00;90.10;;;;;;4901206;29;20402;-79
2023/12/31 12:29:15;;;;;;;3.72;2.88;;;8.90;90.20;;;;;;4902160;29;20048;-79
2023/12/31 12:31:46;;;;;;;2.85;1.58;;;9.00;90.20;;;;;;4899502;29;20563;-79
2023/12/31 12:34:14;;;;;;;3.35;1.42;;;9.00;90.10;;;;;;4899416;29;20043;-79
2023/12/31 12:36:42;;;;;;;7.07;5.03;;;9.00;90.10;;;;;;4902366;29;20037;-80
2023/12/31 12:39:16;;;;;;;15.13;12.85;;;9.00;90.00;;;;;;4902395;29;20444;-79
2023/12/31 12:41:48;;;;;;;7.78;5.28;;;9.00;90.00;;;;;;4882934;29;20036;-79
2023/12/31 12:44:14;;;;;;;14.02;9.98;;;9.00;89.90;;;;;;4899569;29;20059;-80
2023/12/31 12:46:41;;;;;;;3.05;2.00;;;9.00;89.70;;;;;;4896396;29;20040;-80
2023/12/31 12:49:07;;;;;;;4.50;1.90;;;9.00;89.60;;;;;;4881258;29;20048;-79
2023/12/31 12:51:34;;;;;;;3.10;1.10;;;9.00;89.70;;;;;;4880766;29;20040;-79
2023/12/31 12:54:01;;;;;;;3.40;1.67;;;9.00;89.50;;;;;;4896781;29;20037;-79